sensor_id;sensor_type;location;lat;lon;timestamp;pressure;altitude;pressure_sealevel;temperature;humidity
15914;BME280;8055;51.930;8.840;2023-07-20T00:01:28;75129.47;;;-145.72;100.00
15914;BME280;8055;51.930;8.840;2023-07-20T00:03:53;75127.41;;;-145.72;100.00
15914;BME280;8055;51.930;8.840;2023-07-20T00:06:25;75121.22;;;-145.72;100.00
15914;BME280;8055;51.930;8.840;2023-07-20T00:08:51;75127.41;;;-145.72;100.00
15914;BME280;8055;51.930;8.840;2023-07-20T00:11:16;75127.41;;;-145.72;100.00
15914;BME280;8055;51.930;8.840;2023-07-20T00:13:42;75121.22;;;-145.72;100.00
15914;BME280;8055;51.930;8.840;2023-07-20T00:16:07;75123.28;;;-145.72;100.00
15914;BME280;8055;51.930;8.840;2023-07-20T00:18:33;75117.06;;;-145.72;100.00
15914;BME280;8055;51.930;8.840;2023-07-20T00:20:58;75123.28;;;-145.72;100.00
15914;BME280;8055;51.930;8.840;2023-07-20T00:23:27;75133.63;;;-145.72;100.00
15914;BME280;8055;51.930;8.840;2023-07-20T00:25:52;75131.56;;;-145.72;100.00
15914;BME280;8055;51.930;8.840;2023-07-20T00:28:18;75143.97;;;-145.72;100.00
15914;BME280;8055;51.930;8.840;2023-07-20T00:30:43;75146.03;;;-145.72;100.00
15914;BME280;8055;51.930;8.840;2023-07-20T00:33:10;75154.31;;;-145.72;100.00
15914;BME280;8055;51.930;8.840;2023-07-20T00:35:36;75158.44;;;-145.72;100.00
15914;BME280;8055;51.930;8.840;2023-07-20T00:38:03;75162.59;;;-145.72;100.00
15914;BME280;8055;51.930;8.840;2023-07-20T00:40:29;75160.50;;;-145.72;100.00
15914;BME280;8055;51.930;8.840;2023-07-20T00:42:54;75177.06;;;-145.72;100.00
15914;BME280;8055;51.930;8.840;2023-07-20T00:45:19;75172.94;;;-145.72;100.00
15914;BME280;8055;51.930;8.840;2023-07-20T00:47:45;75172.94;;;-145.72;100.00
15914;BME280;8055;51.930;8.840;2023-07-20T00:50:10;75179.13;;;-145.72;100.00
15914;BME280;8055;51.930;8.840;2023-07-20T00:52:37;75175.00;;;-145.72;100.00
15914;BME280;8055;51.930;8.840;2023-07-20T00:55:04;75170.88;;;-145.72;100.00
15914;BME280;8055;51.930;8.840;2023-07-20T00:57:30;75162.59;;;-145.72;100.00
15914;BME280;8055;51.930;8.840;2023-07-20T00:59:55;75172.94;;;-145.72;100.00
15914;BME280;8055;51.930;8.840;2023-07-20T01:02:21;75179.13;;;-145.72;100.00
15914;BME280;8055;51.930;8.840;2023-07-20T01:04:47;75175.00;;;-145.72;100.00
15914;BME280;8055;51.930;8.840;2023-07-20T01:07:19;75175.00;;;-145.72;100.00
15914;BME280;8055;51.930;8.840;2023-07-20T01:09:56;75175.00;;;-145.72;100.00
15914;BME280;8055;51.930;8.840;2023-07-20T01:12:31;75166.72;;;-145.72;100.00
15914;BME280;8055;51.930;8.840;2023-07-20T01:14:59;75172.94;;;-145.72;100.00
15914;BME280;8055;51.930;8.840;2023-07-20T01:17:25;75175.00;;;-145.72;100.00
15914;BME280;8055;51.930;8.840;2023-07-20T01:19:50;75183.28;;;-145.72;100.00
15914;BME280;8055;51.930;8.840;2023-07-20T01:22:35;75170.88;;;-145.72;100.00
15914;BME280;8055;51.930;8.840;2023-07-20T01:30:50;75175.00;;;-145.72;100.00
15914;BME280;8055;51.930;8.840;2023-07-20T01:33:19;75181.22;;;-145.72;100.00
15914;BME280;8055;51.930;8.840;2023-07-20T01:35:47;75189.47;;;-145.72;100.00
15914;BME280;8055;51.930;8.840;2023-07-20T01:38:13;75199.81;;;-145.72;100.00
15914;BME280;8055;51.930;8.840;2023-07-20T01:40:40;75195.69;;;-145.72;100.00
15914;BME280;8055;51.930;8.840;2023-07-20T01:43:06;75195.69;;;-145.72;100.00
15914;BME280;8055;51.930;8.840;2023-07-20T01:45:31;75203.97;;;-145.72;100.00
15914;BME280;8055;51.930;8.840;2023-07-20T01:47:57;75226.72;;;-145.72;100.00
15914;BME280;8055;51.930;8.840;2023-07-20T01:50:22;75224.66;;;-145.72;100.00
15914;BME280;8055;51.930;8.840;2023-07-20T01:52:47;75241.19;;;-145.72;100.00
15914;BME280;8055;51.930;8.840;2023-07-20T01:55:13;75249.47;;;-145.72;100.00
15914;BME280;8055;51.930;8.840;2023-07-20T01:57:39;75259.81;;;-145.72;100.00
15914;BME280;8055;51.930;8.840;2023-07-20T02:00:04;75257.75;;;-145.72;100.00
15914;BME280;8055;51.930;8.840;2023-07-20T02:02:30;75257.75;;;-145.72;100.00
15914;BME280;8055;51.930;8.840;2023-07-20T02:04:56;75247.41;;;-145.72;100.00
15914;BME280;8055;51.930;8.840;2023-07-20T02:07:21;75245.34;;;-145.72;100.00
15914;BME280;8055;51.930;8.840;2023-07-20T02:09:47;75230.84;;;-145.72;100.00
15914;BME280;8055;51.930;8.840;2023-07-20T02:12:12;75224.66;;;-145.72;100.00
15914;BME280;8055;51.930;8.840;2023-07-20T02:14:37;75228.78;;;-145.72;100.00
15914;BME280;8055;51.930;8.840;2023-07-20T02:17:04;75232.94;;;-145.72;100.00
15914;BME280;8055;51.930;8.840;2023-07-20T02:19:29;75222.59;;;-145.72;100.00
15914;BME280;8055;51.930;8.840;2023-07-20T02:21:55;75197.75;;;-145.72;100.00
15914;BME280;8055;51.930;8.840;2023-07-20T02:24:20;75199.81;;;-145.72;100.00
15914;BME280;8055;51.930;8.840;2023-07-20T02:26:46;75193.63;;;-145.72;100.00
15914;BME280;8055;51.930;8.840;2023-07-20T02:29:11;75187.41;;;-145.72;100.00
15914;BME280;8055;51.930;8.840;2023-07-20T02:31:37;75191.56;;;-145.72;100.00
15914;BME280;8055;51.930;8.840;2023-07-20T02:34:05;75185.34;;;-145.72;100.00
15914;BME280;8055;51.930;8.840;2023-07-20T02:36:30;75183.28;;;-145.72;100.00
15914;BME280;8055;51.930;8.840;2023-07-20T02:38:58;75175.00;;;-145.72;100.00
15914;BME280;8055;51.930;8.840;2023-07-20T02:41:23;75177.06;;;-145.72;100.00
15914;BME280;8055;51.930;8.840;2023-07-20T02:43:49;75179.13;;;-145.72;100.00
15914;BME280;8055;51.930;8.840;2023-07-20T02:46:15;75179.13;;;-145.72;100.00
15914;BME280;8055;51.930;8.840;2023-07-20T02:48:40;75185.34;;;-145.72;100.00
15914;BME280;8055;51.930;8.840;2023-07-20T02:51:05;75183.28;;;-145.72;100.00
15914;BME280;8055;51.930;8.840;2023-07-20T02:53:33;75179.13;;;-145.72;100.00
15914;BME280;8055;51.930;8.840;2023-07-20T02:55:58;75181.22;;;-145.72;100.00
15914;BME280;8055;51.930;8.840;2023-07-20T02:58:23;75183.28;;;-145.72;100.00
15914;BME280;8055;51.930;8.840;2023-07-20T03:00:49;75185.34;;;-145.72;100.00
15914;BME280;8055;51.930;8.840;2023-07-20T03:03:14;75181.22;;;-145.72;100.00
15914;BME280;8055;51.930;8.840;2023-07-20T03:05:42;75175.00;;;-145.72;100.00
15914;BME280;8055;51.930;8.840;2023-07-20T03:08:08;75191.56;;;-145.72;100.00
15914;BME280;8055;51.930;8.840;2023-07-20T03:10:39;75185.34;;;-145.72;100.00
15914;BME280;8055;51.930;8.840;2023-07-20T03:13:06;75189.47;;;-145.72;100.00
15914;BME280;8055;51.930;8.840;2023-07-20T03:15:31;75187.41;;;-145.72;100.00
15914;BME280;8055;51.930;8.840;2023-07-20T03:17:56;75185.34;;;-145.72;100.00
15914;BME280;8055;51.930;8.840;2023-07-20T03:20:23;75185.34;;;-145.72;100.00
15914;BME280;8055;51.930;8.840;2023-07-20T03:22:49;75185.34;;;-145.72;100.00
15914;BME280;8055;51.930;8.840;2023-07-20T03:25:14;75187.41;;;-145.72;100.00
15914;BME280;8055;51.930;8.840;2023-07-20T03:27:40;75187.41;;;-145.72;100.00
15914;BME280;8055;51.930;8.840;2023-07-20T03:30:06;75185.34;;;-145.72;100.00
15914;BME280;8055;51.930;8.840;2023-07-20T03:32:32;75183.28;;;-145.72;100.00
15914;BME280;8055;51.930;8.840;2023-07-20T03:34:58;75183.28;;;-145.72;100.00
15914;BME280;8055;51.930;8.840;2023-07-20T03:37:23;75185.34;;;-145.72;100.00
15914;BME280;8055;51.930;8.840;2023-07-20T03:39:48;75185.34;;;-145.72;100.00
15914;BME280;8055;51.930;8.840;2023-07-20T03:42:14;75191.56;;;-145.72;100.00
15914;BME280;8055;51.930;8.840;2023-07-20T03:44:39;75195.69;;;-145.72;100.00
15914;BME280;8055;51.930;8.840;2023-07-20T03:47:05;75193.63;;;-145.72;100.00
15914;BME280;8055;51.930;8.840;2023-07-20T03:49:30;75191.56;;;-145.72;100.00
15914;BME280;8055;51.930;8.840;2023-07-20T03:51:56;75189.47;;;-145.72;100.00
15914;BME280;8055;51.930;8.840;2023-07-20T03:54:21;75187.41;;;-145.72;100.00
15914;BME280;8055;51.930;8.840;2023-07-20T03:56:46;75185.34;;;-145.72;100.00
15914;BME280;8055;51.930;8.840;2023-07-20T03:59:12;75189.47;;;-145.72;100.00
15914;BME280;8055;51.930;8.840;2023-07-20T04:01:37;75183.28;;;-145.72;100.00
15914;BME280;8055;51.930;8.840;2023-07-20T04:04:07;75181.22;;;-145.72;100.00
15914;BME280;8055;51.930;8.840;2023-07-20T04:06:33;75185.34;;;-145.72;100.00
15914;BME280;8055;51.930;8.840;2023-07-20T04:08:59;75191.56;;;-145.72;100.00
15914;BME280;8055;51.930;8.840;2023-07-20T04:11:24;75193.63;;;-145.72;100.00
15914;BME280;8055;51.930;8.840;2023-07-20T04:13:49;75201.91;;;-145.72;100.00
15914;BME280;8055;51.930;8.840;2023-07-20T04:16:15;75216.38;;;-145.72;100.00
15914;BME280;8055;51.930;8.840;2023-07-20T04:18:40;75230.84;;;-145.72;100.00
15914;BME280;8055;51.930;8.840;2023-07-20T04:21:08;75235.00;;;-145.72;100.00
15914;BME280;8055;51.930;8.840;2023-07-20T04:23:33;75282.59;;;-145.72;100.00
15914;BME280;8055;51.930;8.840;2023-07-20T04:26:00;75299.13;;;-145.72;100.00
15914;BME280;8055;51.930;8.840;2023-07-20T04:28:26;75313.63;;;-145.72;100.00
15914;BME280;8055;51.930;8.840;2023-07-20T04:30:52;75344.66;;;-145.72;100.00
15914;BME280;8055;51.930;8.840;2023-07-20T04:33:17;75361.22;;;-145.72;100.00
15914;BME280;8055;51.930;8.840;2023-07-20T04:35:54;75371.56;;;-145.72;100.00
15914;BME280;8055;51.930;8.840;2023-07-20T04:38:20;75383.97;;;-145.72;100.00
15914;BME280;8055;51.930;8.840;2023-07-20T04:40:49;75402.59;;;-145.72;100.00
15914;BME280;8055;51.930;8.840;2023-07-20T04:43:16;75392.25;;;-145.72;100.00
15914;BME280;8055;51.930;8.840;2023-07-20T04:45:41;75400.50;;;-145.72;100.00
15914;BME280;8055;51.930;8.840;2023-07-20T04:48:09;75400.50;;;-145.72;100.00
15914;BME280;8055;51.930;8.840;2023-07-20T04:50:40;75415.00;;;-145.72;100.00
15914;BME280;8055;51.930;8.840;2023-07-20T04:53:06;75423.28;;;-145.72;100.00
15914;BME280;8055;51.930;8.840;2023-07-20T04:55:31;75431.56;;;-145.72;100.00
15914;BME280;8055;51.930;8.840;2023-07-20T04:58:00;75419.13;;;-145.72;100.00
15914;BME280;8055;51.930;8.840;2023-07-20T05:00:25;75410.88;;;-145.72;100.00
15914;BME280;8055;51.930;8.840;2023-07-20T05:02:51;75425.34;;;-145.72;100.00
15914;BME280;8055;51.930;8.840;2023-07-20T05:05:16;75423.28;;;-145.72;100.00
15914;BME280;8055;51.930;8.840;2023-07-20T05:07:41;75410.88;;;-145.72;100.00
15914;BME280;8055;51.930;8.840;2023-07-20T05:10:07;75421.22;;;-145.72;100.00
15914;BME280;8055;51.930;8.840;2023-07-20T05:12:33;75423.28;;;-145.72;100.00
15914;BME280;8055;51.930;8.840;2023-07-20T05:14:58;75423.28;;;-145.72;100.00
15914;BME280;8055;51.930;8.840;2023-07-20T05:17:24;75410.88;;;-145.72;100.00
15914;BME280;8055;51.930;8.840;2023-07-20T05:19:50;75408.78;;;-145.72;100.00
15914;BME280;8055;51.930;8.840;2023-07-20T05:22:16;75412.94;;;-145.72;100.00
15914;BME280;8055;51.930;8.840;2023-07-20T05:24:42;75390.16;;;-145.72;100.00
15914;BME280;8055;51.930;8.840;2023-07-20T05:27:07;75410.88;;;-145.72;100.00
15914;BME280;8055;51.930;8.840;2023-07-20T05:29:32;75402.59;;;-145.72;100.00
15914;BME280;8055;51.930;8.840;2023-07-20T05:31:58;75398.44;;;-145.72;100.00
15914;BME280;8055;51.930;8.840;2023-07-20T05:34:23;75408.78;;;-145.72;100.00
15914;BME280;8055;51.930;8.840;2023-07-20T05:36:49;75402.59;;;-145.72;100.00
15914;BME280;8055;51.930;8.840;2023-07-20T05:39:16;75410.88;;;-145.72;100.00
15914;BME280;8055;51.930;8.840;2023-07-20T05:41:42;75396.38;;;-145.72;100.00
15914;BME280;8055;51.930;8.840;2023-07-20T05:44:08;75400.50;;;-145.72;100.00
15914;BME280;8055;51.930;8.840;2023-07-20T05:46:33;75390.16;;;-145.72;100.00
15914;BME280;8055;51.930;8.840;2023-07-20T05:48:58;75400.50;;;-145.72;100.00
15914;BME280;8055;51.930;8.840;2023-07-20T05:51:24;75390.16;;;-145.72;100.00
15914;BME280;8055;51.930;8.840;2023-07-20T05:53:49;75394.31;;;-145.72;100.00
15914;BME280;8055;51.930;8.840;2023-07-20T05:56:14;75375.69;;;-145.72;100.00
15914;BME280;8055;51.930;8.840;2023-07-20T05:58:40;75383.97;;;-145.72;100.00
15914;BME280;8055;51.930;8.840;2023-07-20T06:01:05;75388.09;;;-145.72;100.00
15914;BME280;8055;51.930;8.840;2023-07-20T06:03:32;75386.03;;;-145.72;100.00
15914;BME280;8055;51.930;8.840;2023-07-20T06:06:01;75386.03;;;-145.72;100.00
15914;BME280;8055;51.930;8.840;2023-07-20T06:08:28;75388.09;;;-145.72;100.00
15914;BME280;8055;51.930;8.840;2023-07-20T06:10:54;75390.16;;;-145.72;100.00
15914;BME280;8055;51.930;8.840;2023-07-20T06:13:19;75394.31;;;-145.72;100.00
15914;BME280;8055;51.930;8.840;2023-07-20T06:15:44;75390.16;;;-145.72;100.00
15914;BME280;8055;51.930;8.840;2023-07-20T06:18:10;75381.91;;;-145.72;100.00
15914;BME280;8055;51.930;8.840;2023-07-20T06:20:35;75381.91;;;-145.72;100.00
15914;BME280;8055;51.930;8.840;2023-07-20T06:23:01;75383.97;;;-145.72;100.00
15914;BME280;8055;51.930;8.840;2023-07-20T06:25:26;75369.47;;;-145.72;100.00
15914;BME280;8055;51.930;8.840;2023-07-20T06:27:52;75375.69;;;-145.72;100.00
15914;BME280;8055;51.930;8.840;2023-07-20T06:30:18;75369.47;;;-145.72;100.00
15914;BME280;8055;51.930;8.840;2023-07-20T06:32:43;75363.28;;;-145.72;100.00
15914;BME280;8055;51.930;8.840;2023-07-20T06:35:09;75359.13;;;-145.72;100.00
15914;BME280;8055;51.930;8.840;2023-07-20T06:37:35;75355.00;;;-145.72;100.00
15914;BME280;8055;51.930;8.840;2023-07-20T06:40:02;75359.13;;;-145.72;100.00
15914;BME280;8055;51.930;8.840;2023-07-20T06:42:29;75369.47;;;-145.72;100.00
15914;BME280;8055;51.930;8.840;2023-07-20T06:44:54;75361.22;;;-145.72;100.00
15914;BME280;8055;51.930;8.840;2023-07-20T06:47:20;75361.22;;;-145.72;100.00
15914;BME280;8055;51.930;8.840;2023-07-20T06:49:45;75363.28;;;-145.72;100.00
15914;BME280;8055;51.930;8.840;2023-07-20T06:52:10;75357.06;;;-145.72;100.00
15914;BME280;8055;51.930;8.840;2023-07-20T06:54:36;75352.94;;;-145.72;100.00
15914;BME280;8055;51.930;8.840;2023-07-20T06:57:01;75352.94;;;-145.72;100.00
15914;BME280;8055;51.930;8.840;2023-07-20T06:59:27;75352.94;;;-145.72;100.00
15914;BME280;8055;51.930;8.840;2023-07-20T07:01:52;75361.22;;;-145.72;100.00
15914;BME280;8055;51.930;8.840;2023-07-20T07:04:17;75352.94;;;-145.72;100.00
15914;BME280;8055;51.930;8.840;2023-07-20T07:06:43;75346.72;;;-145.72;100.00
15914;BME280;8055;51.930;8.840;2023-07-20T07:09:09;75344.66;;;-145.72;100.00
15914;BME280;8055;51.930;8.840;2023-07-20T07:11:35;75326.03;;;-145.72;100.00
15914;BME280;8055;51.930;8.840;2023-07-20T07:14:00;75346.72;;;-145.72;100.00
15914;BME280;8055;51.930;8.840;2023-07-20T07:16:25;75334.31;;;-145.72;100.00
15914;BME280;8055;51.930;8.840;2023-07-20T07:18:51;75315.69;;;-145.72;100.00
15914;BME280;8055;51.930;8.840;2023-07-20T07:21:16;75284.66;;;-145.72;100.00
15914;BME280;8055;51.930;8.840;2023-07-20T07:23:43;75245.34;;;-145.72;100.00
15914;BME280;8055;51.930;8.840;2023-07-20T07:26:09;75224.66;;;-145.72;100.00
15914;BME280;8055;51.930;8.840;2023-07-20T07:28:35;75220.50;;;-145.72;100.00
15914;BME280;8055;51.930;8.840;2023-07-20T07:31:00;75226.72;;;-145.72;100.00
15914;BME280;8055;51.930;8.840;2023-07-20T07:33:26;75261.91;;;-145.72;100.00
15914;BME280;8055;51.930;8.840;2023-07-20T07:35:51;75261.91;;;-145.72;100.00
15914;BME280;8055;51.930;8.840;2023-07-20T07:38:20;75266.03;;;-145.72;100.00
15914;BME280;8055;51.930;8.840;2023-07-20T07:40:45;75257.75;;;-145.72;100.00
15914;BME280;8055;51.930;8.840;2023-07-20T07:43:11;75255.69;;;-145.72;100.00
15914;BME280;8055;51.930;8.840;2023-07-20T07:45:38;75286.72;;;-145.72;100.00
15914;BME280;8055;51.930;8.840;2023-07-20T07:48:07;75286.72;;;-145.72;100.00
15914;BME280;8055;51.930;8.840;2023-07-20T07:50:33;75311.56;;;-145.72;100.00
15914;BME280;8055;51.930;8.840;2023-07-20T07:52:59;75274.31;;;-145.72;100.00
15914;BME280;8055;51.930;8.840;2023-07-20T07:55:25;75243.28;;;-145.72;100.00
15914;BME280;8055;51.930;8.840;2023-07-20T07:57:52;75241.19;;;-145.72;100.00
15914;BME280;8055;51.930;8.840;2023-07-20T08:00:18;75257.75;;;-145.72;100.00
15914;BME280;8055;51.930;8.840;2023-07-20T08:02:44;75266.03;;;-145.72;100.00
15914;BME280;8055;51.930;8.840;2023-07-20T08:05:10;75276.38;;;-145.72;100.00
15914;BME280;8055;51.930;8.840;2023-07-20T08:07:36;75286.72;;;-145.72;100.00
15914;BME280;8055;51.930;8.840;2023-07-20T08:10:03;75305.34;;;-145.72;100.00
15914;BME280;8055;51.930;8.840;2023-07-20T08:12:28;75270.16;;;-145.72;100.00
15914;BME280;8055;51.930;8.840;2023-07-20T08:14:54;75241.19;;;-145.72;100.00
15914;BME280;8055;51.930;8.840;2023-07-20T08:17:19;75203.97;;;-145.72;100.00
15914;BME280;8055;51.930;8.840;2023-07-20T08:19:46;75177.06;;;-145.72;100.00
15914;BME280;8055;51.930;8.840;2023-07-20T08:22:12;75146.03;;;-145.72;100.00
15914;BME280;8055;51.930;8.840;2023-07-20T08:24:40;75110.88;;;-145.72;100.00
15914;BME280;8055;51.930;8.840;2023-07-20T08:27:06;75121.22;;;-145.72;100.00
15914;BME280;8055;51.930;8.840;2023-07-20T08:29:32;75141.91;;;-145.72;100.00
15914;BME280;8055;51.930;8.840;2023-07-20T08:31:57;75131.56;;;-145.72;100.00
15914;BME280;8055;51.930;8.840;2023-07-20T08:34:23;75098.44;;;-145.72;100.00
15914;BME280;8055;51.930;8.840;2023-07-20T08:36:48;75098.44;;;-145.72;100.00
15914;BME280;8055;51.930;8.840;2023-07-20T08:39:13;75075.69;;;-145.72;100.00
15914;BME280;8055;51.930;8.840;2023-07-20T08:41:41;75090.19;;;-145.72;100.00
15914;BME280;8055;51.930;8.840;2023-07-20T08:44:08;75075.69;;;-145.72;100.00
15914;BME280;8055;51.930;8.840;2023-07-20T08:46:34;75073.63;;;-145.72;98.46
15914;BME280;8055;51.930;8.840;2023-07-20T08:49:00;75042.59;;;-145.72;100.00
15914;BME280;8055;51.930;8.840;2023-07-20T08:51:29;75028.09;;;-145.72;100.00
15914;BME280;8055;51.930;8.840;2023-07-20T08:53:55;75013.63;;;-145.72;100.00
15914;BME280;8055;51.930;8.840;2023-07-20T08:56:20;75003.28;;;-145.72;91.27
15914;BME280;8055;51.930;8.840;2023-07-20T08:58:49;75011.56;;;-145.72;84.84
15914;BME280;8055;51.930;8.840;2023-07-20T09:01:15;74990.88;;;-145.72;95.08
15914;BME280;8055;51.930;8.840;2023-07-20T09:03:45;74957.78;;;-145.72;98.99
15914;BME280;8055;51.930;8.840;2023-07-20T09:06:10;74930.88;;;-145.72;97.92
15914;BME280;8055;51.930;8.840;2023-07-20T09:08:40;74914.31;;;-145.72;94.03
15914;BME280;8055;51.930;8.840;2023-07-20T09:11:06;74910.19;;;-145.72;87.81
15914;BME280;8055;51.930;8.840;2023-07-20T09:13:33;74903.97;;;-145.72;90.25
15914;BME280;8055;51.930;8.840;2023-07-20T09:15:59;74908.13;;;-145.72;82.39
15914;BME280;8055;51.930;8.840;2023-07-20T09:18:28;74887.44;;;-145.72;88.27
15914;BME280;8055;51.930;8.840;2023-07-20T09:21:16;74922.59;;;-145.72;84.00
15914;BME280;8055;51.930;8.840;2023-07-20T09:23:42;74951.56;;;-145.72;77.53
15914;BME280;8055;51.930;8.840;2023-07-20T09:26:12;74963.97;;;-145.72;72.86
15914;BME280;8055;51.930;8.840;2023-07-20T09:28:48;74916.38;;;-145.72;82.06
15914;BME280;8055;51.930;8.840;2023-07-20T09:31:21;74870.88;;;-145.72;86.50
15914;BME280;8055;51.930;8.840;2023-07-20T09:33:48;74850.19;;;-145.72;72.88
15914;BME280;8055;51.930;8.840;2023-07-20T09:36:14;74837.78;;;-145.72;75.44
15914;BME280;8055;51.930;8.840;2023-07-20T09:38:41;74901.91;;;-145.72;76.73
15914;BME280;8055;51.930;8.840;2023-07-20T09:41:07;74908.13;;;-145.72;74.47
15914;BME280;8055;51.930;8.840;2023-07-20T09:43:34;74910.19;;;-145.72;73.33
15914;BME280;8055;51.930;8.840;2023-07-20T09:46:00;74903.97;;;-145.72;75.52
15914;BME280;8055;51.930;8.840;2023-07-20T09:48:26;74893.63;;;-145.72;76.92
15914;BME280;8055;51.930;8.840;2023-07-20T09:50:52;74887.44;;;-145.72;74.64
15914;BME280;8055;51.930;8.840;2023-07-20T09:53:19;74879.16;;;-145.72;74.12
15914;BME280;8055;51.930;8.840;2023-07-20T09:55:46;74875.00;;;-145.72;64.40
15914;BME280;8055;51.930;8.840;2023-07-20T09:58:13;74889.50;;;-145.72;70.24
15914;BME280;8055;51.930;8.840;2023-07-20T10:00:40;74879.16;;;-145.72;62.82
15914;BME280;8055;51.930;8.840;2023-07-20T10:03:06;74872.94;;;-145.72;66.09
15914;BME280;8055;51.930;8.840;2023-07-20T10:05:39;74837.78;;;-145.72;70.80
15914;BME280;8055;51.930;8.840;2023-07-20T10:08:07;74833.63;;;-145.72;67.70
15914;BME280;8055;51.930;8.840;2023-07-20T10:10:35;74831.56;;;-145.72;68.82
15914;BME280;8055;51.930;8.840;2023-07-20T10:13:01;74815.03;;;-145.72;70.13
15914;BME280;8055;51.930;8.840;2023-07-20T10:15:36;74788.13;;;-145.72;69.25
15914;BME280;8055;51.930;8.840;2023-07-20T10:18:18;74744.69;;;-145.72;68.71
15914;BME280;8055;51.930;8.840;2023-07-20T10:20:46;74779.84;;;-145.72;66.46
15914;BME280;8055;51.930;8.840;2023-07-20T10:23:12;74777.78;;;-145.72;63.58
15914;BME280;8055;51.930;8.840;2023-07-20T10:25:38;74846.06;;;-145.72;61.99
15914;BME280;8055;51.930;8.840;2023-07-20T10:28:07;74843.97;;;-145.72;69.16
15914;BME280;8055;51.930;8.840;2023-07-20T10:30:36;74823.28;;;-145.72;69.13
15914;BME280;8055;51.930;8.840;2023-07-20T10:33:03;74796.41;;;-145.72;69.38
15914;BME280;8055;51.930;8.840;2023-07-20T10:35:29;74771.56;;;-145.72;68.27
15914;BME280;8055;51.930;8.840;2023-07-20T10:38:00;74761.22;;;-145.72;66.96
15914;BME280;8055;51.930;8.840;2023-07-20T10:40:53;74773.66;;;-145.72;66.42
15914;BME280;8055;51.930;8.840;2023-07-20T10:43:19;74831.56;;;-145.72;64.82
15914;BME280;8055;51.930;8.840;2023-07-20T10:45:54;74823.28;;;-145.72;65.44
15914;BME280;8055;51.930;8.840;2023-07-20T10:48:24;74825.38;;;-145.72;64.72
15914;BME280;8055;51.930;8.840;2023-07-20T10:51:14;74786.06;;;-145.72;67.01
15914;BME280;8055;51.930;8.840;2023-07-20T10:53:40;74761.22;;;-145.72;63.49
15914;BME280;8055;51.930;8.840;2023-07-20T10:56:07;74759.16;;;-145.72;65.31
15914;BME280;8055;51.930;8.840;2023-07-20T10:58:33;74769.50;;;-145.72;61.33
15914;BME280;8055;51.930;8.840;2023-07-20T11:01:03;74736.41;;;-145.72;60.68
15914;BME280;8055;51.930;8.840;2023-07-20T11:03:34;74771.56;;;-145.72;60.47
15914;BME280;8055;51.930;8.840;2023-07-20T11:08:48;74837.78;;;-145.72;61.36
15914;BME280;8055;51.930;8.840;2023-07-20T11:11:24;74864.66;;;-145.72;63.31
15914;BME280;8055;51.930;8.840;2023-07-20T11:14:01;74852.25;;;-145.72;64.70
15914;BME280;8055;51.930;8.840;2023-07-20T11:16:38;74802.63;;;-145.72;66.54
15914;BME280;8055;51.930;8.840;2023-07-20T11:19:06;74779.84;;;-145.72;64.16
15914;BME280;8055;51.930;8.840;2023-07-20T11:21:38;74746.75;;;-145.72;59.45
15914;BME280;8055;51.930;8.840;2023-07-20T11:24:06;74715.72;;;-145.72;59.77
15914;BME280;8055;51.930;8.840;2023-07-20T11:26:53;74695.03;;;-145.72;60.70
15914;BME280;8055;51.930;8.840;2023-07-20T11:29:20;74670.22;;;-145.72;61.36
15914;BME280;8055;51.930;8.840;2023-07-20T11:31:46;74622.63;;;-145.72;57.14
15914;BME280;8055;51.930;8.840;2023-07-20T11:34:17;74581.25;;;-145.72;60.13
15914;BME280;8055;51.930;8.840;2023-07-20T11:36:47;74568.84;;;-145.72;58.17
15914;BME280;8055;51.930;8.840;2023-07-20T11:39:15;74546.09;;;-145.72;51.93
15914;BME280;8055;51.930;8.840;2023-07-20T11:41:46;74527.47;;;-145.72;54.00
15914;BME280;8055;51.930;8.840;2023-07-20T11:44:12;74504.72;;;-145.72;55.88
15914;BME280;8055;51.930;8.840;2023-07-20T11:46:42;74515.06;;;-145.72;53.75
15914;BME280;8055;51.930;8.840;2023-07-20T11:49:08;74477.84;;;-145.72;54.31
15914;BME280;8055;51.930;8.840;2023-07-20T11:51:34;74438.53;;;-145.72;52.93
15914;BME280;8055;51.930;8.840;2023-07-20T11:54:01;74417.84;;;-145.72;49.64
15914;BME280;8055;51.930;8.840;2023-07-20T11:56:27;74407.50;;;-145.72;49.59
15914;BME280;8055;51.930;8.840;2023-07-20T11:58:58;74405.44;;;-145.72;53.20
15914;BME280;8055;51.930;8.840;2023-07-20T12:01:26;74440.59;;;-145.72;49.38
15914;BME280;8055;51.930;8.840;2023-07-20T12:03:59;74453.00;;;-145.72;50.83
15914;BME280;8055;51.930;8.840;2023-07-20T12:06:25;74513.00;;;-145.72;56.47
15914;BME280;8055;51.930;8.840;2023-07-20T12:08:54;74450.94;;;-145.72;53.80
15914;BME280;8055;51.930;8.840;2023-07-20T12:11:35;74426.13;;;-145.72;54.04
15914;BME280;8055;51.930;8.840;2023-07-20T12:14:02;74399.22;;;-145.72;50.07
15914;BME280;8055;51.930;8.840;2023-07-20T12:16:29;74438.53;;;-145.72;52.50
15914;BME280;8055;51.930;8.840;2023-07-20T12:19:13;74450.94;;;-145.72;53.36
15914;BME280;8055;51.930;8.840;2023-07-20T12:21:40;74498.53;;;-145.72;53.38
15914;BME280;8055;51.930;8.840;2023-07-20T12:24:08;74544.03;;;-145.72;53.83
15914;BME280;8055;51.930;8.840;2023-07-20T12:26:37;74473.69;;;-145.72;53.51
15914;BME280;8055;51.930;8.840;2023-07-20T12:29:03;74417.84;;;-145.72;53.40
15914;BME280;8055;51.930;8.840;2023-07-20T12:31:29;74345.44;;;-145.72;49.96
15914;BME280;8055;51.930;8.840;2023-07-20T12:33:56;74308.22;;;-145.72;47.41
15914;BME280;8055;51.930;8.840;2023-07-20T12:36:22;74316.50;;;-145.72;47.72
15914;BME280;8055;51.930;8.840;2023-07-20T12:38:47;74287.53;;;-145.72;46.78
15914;BME280;8055;51.930;8.840;2023-07-20T12:41:13;74314.41;;;-145.72;45.22
15914;BME280;8055;51.930;8.840;2023-07-20T12:43:43;74283.41;;;-145.72;49.38
15914;BME280;8055;51.930;8.840;2023-07-20T12:46:09;74304.06;;;-145.72;46.12
15914;BME280;8055;51.930;8.840;2023-07-20T12:48:36;74326.84;;;-145.72;44.48
15914;BME280;8055;51.930;8.840;2023-07-20T12:51:06;74285.47;;;-145.72;47.63